sensor_id;sensor_type;location;lat;lon;timestamp;temperature;humidity
15596;DHT22;7898;48.658;9.068;2022-08-19T00:01:41;19.90;99.90
15596;DHT22;7898;48.658;9.068;2022-08-19T00:04:11;19.90;99.90
15596;DHT22;7898;48.658;9.068;2022-08-19T00:06:40;19.90;99.90
15596;DHT22;7898;48.658;9.068;2022-08-19T00:09:10;19.90;99.90
15596;DHT22;7898;48.658;9.068;2022-08-19T00:11:38;19.90;99.90
15596;DHT22;7898;48.658;9.068;2022-08-19T00:14:07;19.90;99.90
15596;DHT22;7898;48.658;9.068;2022-08-19T00:16:38;19.90;99.90
15596;DHT22;7898;48.658;9.068;2022-08-19T00:19:05;19.90;99.90
15596;DHT22;7898;48.658;9.068;2022-08-19T00:21:32;19.90;99.90
15596;DHT22;7898;48.658;9.068;2022-08-19T00:24:05;19.90;99.90
15596;DHT22;7898;48.658;9.068;2022-08-19T00:26:34;19.90;99.90
15596;DHT22;7898;48.658;9.068;2022-08-19T00:29:01;19.90;99.90
15596;DHT22;7898;48.658;9.068;2022-08-19T00:31:28;19.80;99.90
15596;DHT22;7898;48.658;9.068;2022-08-19T00:33:58;19.90;99.90
15596;DHT22;7898;48.658;9.068;2022-08-19T00:36:24;19.80;99.90
15596;DHT22;7898;48.658;9.068;2022-08-19T00:38:52;19.80;99.90
15596;DHT22;7898;48.658;9.068;2022-08-19T00:41:20;19.80;99.90
15596;DHT22;7898;48.658;9.068;2022-08-19T00:43:58;19.80;99.90
15596;DHT22;7898;48.658;9.068;2022-08-19T00:46:25;19.80;99.90
15596;DHT22;7898;48.658;9.068;2022-08-19T00:48:52;19.70;99.90
15596;DHT22;7898;48.658;9.068;2022-08-19T00:51:21;19.70;99.90
15596;DHT22;7898;48.658;9.068;2022-08-19T00:53:49;19.70;99.90
15596;DHT22;7898;48.658;9.068;2022-08-19T00:56:16;19.60;99.90
15596;DHT22;7898;48.658;9.068;2022-08-19T00:58:44;19.60;99.90
15596;DHT22;7898;48.658;9.068;2022-08-19T01:01:11;19.60;99.90
15596;DHT22;7898;48.658;9.068;2022-08-19T01:03:39;19.50;99.90
15596;DHT22;7898;48.658;9.068;2022-08-19T01:06:06;19.50;99.90
15596;DHT22;7898;48.658;9.068;2022-08-19T01:08:35;19.50;99.90
15596;DHT22;7898;48.658;9.068;2022-08-19T01:11:02;19.50;99.90
15596;DHT22;7898;48.658;9.068;2022-08-19T01:13:32;19.40;99.90
15596;DHT22;7898;48.658;9.068;2022-08-19T01:16:02;19.40;99.90
15596;DHT22;7898;48.658;9.068;2022-08-19T01:18:30;19.40;99.90
15596;DHT22;7898;48.658;9.068;2022-08-19T01:21:02;19.30;99.90
15596;DHT22;7898;48.658;9.068;2022-08-19T01:23:33;19.30;99.90
15596;DHT22;7898;48.658;9.068;2022-08-19T01:26:10;19.30;99.90
15596;DHT22;7898;48.658;9.068;2022-08-19T01:28:38;19.30;99.90
15596;DHT22;7898;48.658;9.068;2022-08-19T01:31:09;19.30;99.90
15596;DHT22;7898;48.658;9.068;2022-08-19T01:33:37;19.30;99.90
15596;DHT22;7898;48.658;9.068;2022-08-19T01:36:06;19.30;99.90
15596;DHT22;7898;48.658;9.068;2022-08-19T01:38:37;19.30;99.90
15596;DHT22;7898;48.658;9.068;2022-08-19T01:41:04;19.30;99.90
15596;DHT22;7898;48.658;9.068;2022-08-19T01:43:32;19.30;99.90
15596;DHT22;7898;48.658;9.068;2022-08-19T01:45:59;19.30;99.90
15596;DHT22;7898;48.658;9.068;2022-08-19T01:48:26;19.30;99.90
15596;DHT22;7898;48.658;9.068;2022-08-19T01:50:54;19.30;99.90
15596;DHT22;7898;48.658;9.068;2022-08-19T01:53:21;19.30;99.90
15596;DHT22;7898;48.658;9.068;2022-08-19T01:55:50;19.30;99.90
15596;DHT22;7898;48.658;9.068;2022-08-19T01:58:19;19.30;99.90
15596;DHT22;7898;48.658;9.068;2022-08-19T02:00:48;19.30;99.90
15596;DHT22;7898;48.658;9.068;2022-08-19T02:03:15;19.30;99.90
15596;DHT22;7898;48.658;9.068;2022-08-19T02:05:43;19.30;99.90
15596;DHT22;7898;48.658;9.068;2022-08-19T02:08:11;19.30;99.90
15596;DHT22;7898;48.658;9.068;2022-08-19T02:10:39;19.30;99.90
15596;DHT22;7898;48.658;9.068;2022-08-19T02:13:08;19.30;99.90
15596;DHT22;7898;48.658;9.068;2022-08-19T02:15:35;19.30;99.90
15596;DHT22;7898;48.658;9.068;2022-08-19T02:18:03;19.30;99.90
15596;DHT22;7898;48.658;9.068;2022-08-19T02:20:30;19.30;99.90
15596;DHT22;7898;48.658;9.068;2022-08-19T02:22:57;19.30;99.90
15596;DHT22;7898;48.658;9.068;2022-08-19T02:25:24;19.20;99.90
15596;DHT22;7898;48.658;9.068;2022-08-19T02:27:51;19.30;99.90
15596;DHT22;7898;48.658;9.068;2022-08-19T02:30:21;19.30;99.90
15596;DHT22;7898;48.658;9.068;2022-08-19T02:32:49;19.20;99.90
15596;DHT22;7898;48.658;9.068;2022-08-19T02:35:16;19.20;99.90
15596;DHT22;7898;48.658;9.068;2022-08-19T02:37:44;19.20;99.90
15596;DHT22;7898;48.658;9.068;2022-08-19T02:40:29;19.20;99.90
15596;DHT22;7898;48.658;9.068;2022-08-19T02:42:59;19.20;99.90
15596;DHT22;7898;48.658;9.068;2022-08-19T02:45:30;19.20;99.90
15596;DHT22;7898;48.658;9.068;2022-08-19T02:47:58;19.20;99.90
15596;DHT22;7898;48.658;9.068;2022-08-19T02:50:25;19.20;99.90
15596;DHT22;7898;48.658;9.068;2022-08-19T02:52:52;19.10;99.90
15596;DHT22;7898;48.658;9.068;2022-08-19T02:55:19;19.10;99.90
15596;DHT22;7898;48.658;9.068;2022-08-19T02:57:46;19.10;99.90
15596;DHT22;7898;48.658;9.068;2022-08-19T03:00:13;19.10;99.90
15596;DHT22;7898;48.658;9.068;2022-08-19T03:02:42;19.10;99.90
15596;DHT22;7898;48.658;9.068;2022-08-19T03:05:09;19.10;99.90
15596;DHT22;7898;48.658;9.068;2022-08-19T03:07:37;19.10;99.90
15596;DHT22;7898;48.658;9.068;2022-08-19T03:10:05;19.00;99.90
15596;DHT22;7898;48.658;9.068;2022-08-19T03:12:35;19.00;99.90
15596;DHT22;7898;48.658;9.068;2022-08-19T03:15:03;19.00;99.90
15596;DHT22;7898;48.658;9.068;2022-08-19T03:17:31;19.00;99.90
15596;DHT22;7898;48.658;9.068;2022-08-19T03:19:59;19.00;99.90
15596;DHT22;7898;48.658;9.068;2022-08-19T03:22:26;19.00;99.90
15596;DHT22;7898;48.658;9.068;2022-08-19T03:24:53;19.00;99.90
15596;DHT22;7898;48.658;9.068;2022-08-19T03:27:20;19.00;99.90
15596;DHT22;7898;48.658;9.068;2022-08-19T03:29:47;19.00;99.90
15596;DHT22;7898;48.658;9.068;2022-08-19T03:32:13;19.10;99.90
15596;DHT22;7898;48.658;9.068;2022-08-19T03:34:40;18.90;99.90
15596;DHT22;7898;48.658;9.068;2022-08-19T03:37:11;19.00;99.90
15596;DHT22;7898;48.658;9.068;2022-08-19T03:39:39;19.00;99.90
15596;DHT22;7898;48.658;9.068;2022-08-19T03:42:08;18.90;99.90
15596;DHT22;7898;48.658;9.068;2022-08-19T03:44:35;18.90;99.90
15596;DHT22;7898;48.658;9.068;2022-08-19T03:47:04;19.00;99.90
15596;DHT22;7898;48.658;9.068;2022-08-19T03:49:32;18.90;99.90
15596;DHT22;7898;48.658;9.068;2022-08-19T03:52:01;18.90;99.90
15596;DHT22;7898;48.658;9.068;2022-08-19T03:54:32;18.80;99.90
15596;DHT22;7898;48.658;9.068;2022-08-19T03:56:59;18.80;99.90
15596;DHT22;7898;48.658;9.068;2022-08-19T03:59:28;18.80;99.90
15596;DHT22;7898;48.658;9.068;2022-08-19T04:01:57;18.80;99.90
15596;DHT22;7898;48.658;9.068;2022-08-19T04:04:25;18.80;99.90
15596;DHT22;7898;48.658;9.068;2022-08-19T04:06:52;18.70;99.90
15596;DHT22;7898;48.658;9.068;2022-08-19T04:09:19;18.80;99.90
15596;DHT22;7898;48.658;9.068;2022-08-19T04:11:51;18.70;99.90
15596;DHT22;7898;48.658;9.068;2022-08-19T04:14:21;18.70;99.90
15596;DHT22;7898;48.658;9.068;2022-08-19T04:16:48;18.70;99.90
15596;DHT22;7898;48.658;9.068;2022-08-19T04:19:16;18.70;99.90
15596;DHT22;7898;48.658;9.068;2022-08-19T04:21:45;18.70;99.90
15596;DHT22;7898;48.658;9.068;2022-08-19T04:24:13;18.70;99.90
15596;DHT22;7898;48.658;9.068;2022-08-19T04:26:40;18.70;99.90
15596;DHT22;7898;48.658;9.068;2022-08-19T04:29:11;18.70;99.90
15596;DHT22;7898;48.658;9.068;2022-08-19T04:31:39;18.70;99.90
15596;DHT22;7898;48.658;9.068;2022-08-19T04:34:08;18.70;99.90
15596;DHT22;7898;48.658;9.068;2022-08-19T04:36:37;18.70;99.90
15596;DHT22;7898;48.658;9.068;2022-08-19T04:39:06;18.60;99.90
15596;DHT22;7898;48.658;9.068;2022-08-19T04:41:34;18.60;99.90
15596;DHT22;7898;48.658;9.068;2022-08-19T04:44:20;18.60;99.90
15596;DHT22;7898;48.658;9.068;2022-08-19T04:46:47;18.60;99.90
15596;DHT22;7898;48.658;9.068;2022-08-19T04:49:16;18.60;99.90
15596;DHT22;7898;48.658;9.068;2022-08-19T04:51:45;18.60;99.90
15596;DHT22;7898;48.658;9.068;2022-08-19T04:54:13;18.60;99.90
15596;DHT22;7898;48.658;9.068;2022-08-19T04:56:40;18.60;99.90
15596;DHT22;7898;48.658;9.068;2022-08-19T04:59:07;18.60;99.90
15596;DHT22;7898;48.658;9.068;2022-08-19T05:01:37;18.60;99.90
15596;DHT22;7898;48.658;9.068;2022-08-19T05:04:06;18.60;99.90
15596;DHT22;7898;48.658;9.068;2022-08-19T05:06:34;18.70;99.90
15596;DHT22;7898;48.658;9.068;2022-08-19T05:09:02;18.70;99.90
15596;DHT22;7898;48.658;9.068;2022-08-19T05:11:32;18.70;99.90
15596;DHT22;7898;48.658;9.068;2022-08-19T05:13:59;18.70;99.90
15596;DHT22;7898;48.658;9.068;2022-08-19T05:16:27;18.70;99.90
15596;DHT22;7898;48.658;9.068;2022-08-19T05:18:56;18.70;99.90
15596;DHT22;7898;48.658;9.068;2022-08-19T05:21:41;18.70;99.90
15596;DHT22;7898;48.658;9.068;2022-08-19T05:24:25;18.70;99.90
15596;DHT22;7898;48.658;9.068;2022-08-19T05:26:53;18.70;99.90
15596;DHT22;7898;48.658;9.068;2022-08-19T05:29:23;18.70;99.90
15596;DHT22;7898;48.658;9.068;2022-08-19T05:31:52;18.80;99.90
15596;DHT22;7898;48.658;9.068;2022-08-19T05:34:22;18.70;99.90
15596;DHT22;7898;48.658;9.068;2022-08-19T05:36:51;18.70;99.90
15596;DHT22;7898;48.658;9.068;2022-08-19T05:39:23;18.70;99.90
15596;DHT22;7898;48.658;9.068;2022-08-19T05:41:52;18.70;99.90
15596;DHT22;7898;48.658;9.068;2022-08-19T05:44:20;18.70;99.90
15596;DHT22;7898;48.658;9.068;2022-08-19T05:46:48;18.70;99.90
15596;DHT22;7898;48.658;9.068;2022-08-19T05:49:21;18.70;99.90
15596;DHT22;7898;48.658;9.068;2022-08-19T05:51:49;18.70;99.90
15596;DHT22;7898;48.658;9.068;2022-08-19T05:54:16;18.70;99.90
15596;DHT22;7898;48.658;9.068;2022-08-19T05:56:44;18.70;99.90
15596;DHT22;7898;48.658;9.068;2022-08-19T05:59:14;18.70;99.90
15596;DHT22;7898;48.658;9.068;2022-08-19T06:01:43;18.80;99.90
15596;DHT22;7898;48.658;9.068;2022-08-19T06:04:11;18.80;99.90
15596;DHT22;7898;48.658;9.068;2022-08-19T06:06:41;18.80;99.90
15596;DHT22;7898;48.658;9.068;2022-08-19T06:09:08;18.80;99.90
15596;DHT22;7898;48.658;9.068;2022-08-19T06:11:38;18.80;99.90
15596;DHT22;7898;48.658;9.068;2022-08-19T06:14:10;18.80;99.90
15596;DHT22;7898;48.658;9.068;2022-08-19T06:16:39;18.80;99.90
15596;DHT22;7898;48.658;9.068;2022-08-19T06:19:08;18.80;99.90
15596;DHT22;7898;48.658;9.068;2022-08-19T06:21:37;18.80;99.90
15596;DHT22;7898;48.658;9.068;2022-08-19T06:24:08;18.80;99.90
15596;DHT22;7898;48.658;9.068;2022-08-19T06:26:37;18.80;99.90
15596;DHT22;7898;48.658;9.068;2022-08-19T06:29:06;18.80;99.90
15596;DHT22;7898;48.658;9.068;2022-08-19T06:31:34;18.90;99.90
15596;DHT22;7898;48.658;9.068;2022-08-19T06:34:03;18.90;99.90
15596;DHT22;7898;48.658;9.068;2022-08-19T06:36:31;18.90;99.90
15596;DHT22;7898;48.658;9.068;2022-08-19T06:39:00;19.00;99.90
15596;DHT22;7898;48.658;9.068;2022-08-19T06:41:29;19.00;99.90
15596;DHT22;7898;48.658;9.068;2022-08-19T06:43:57;19.10;99.90
15596;DHT22;7898;48.658;9.068;2022-08-19T06:46:24;19.10;99.90
15596;DHT22;7898;48.658;9.068;2022-08-19T06:48:52;19.00;99.90
15596;DHT22;7898;48.658;9.068;2022-08-19T06:51:20;19.00;99.90
15596;DHT22;7898;48.658;9.068;2022-08-19T06:53:48;19.00;99.90
15596;DHT22;7898;48.658;9.068;2022-08-19T06:56:19;19.10;99.90
15596;DHT22;7898;48.658;9.068;2022-08-19T06:58:48;19.10;99.90
15596;DHT22;7898;48.658;9.068;2022-08-19T07:01:19;19.10;99.90
15596;DHT22;7898;48.658;9.068;2022-08-19T07:03:46;19.00;99.90
15596;DHT22;7898;48.658;9.068;2022-08-19T07:06:16;19.10;99.90
15596;DHT22;7898;48.658;9.068;2022-08-19T07:08:45;19.10;99.90
15596;DHT22;7898;48.658;9.068;2022-08-19T07:11:15;19.10;99.90
15596;DHT22;7898;48.658;9.068;2022-08-19T07:13:43;19.20;99.90
15596;DHT22;7898;48.658;9.068;2022-08-19T07:16:14;19.20;99.90
15596;DHT22;7898;48.658;9.068;2022-08-19T07:18:42;19.30;99.90
15596;DHT22;7898;48.658;9.068;2022-08-19T07:21:13;19.30;99.90
15596;DHT22;7898;48.658;9.068;2022-08-19T07:23:41;19.30;99.90
15596;DHT22;7898;48.658;9.068;2022-08-19T07:26:10;19.30;99.90
15596;DHT22;7898;48.658;9.068;2022-08-19T07:28:37;19.40;99.90
15596;DHT22;7898;48.658;9.068;2022-08-19T07:31:05;19.40;99.90
15596;DHT22;7898;48.658;9.068;2022-08-19T07:33:34;19.40;99.90
15596;DHT22;7898;48.658;9.068;2022-08-19T07:36:03;19.40;99.90
15596;DHT22;7898;48.658;9.068;2022-08-19T07:38:32;19.40;99.90
15596;DHT22;7898;48.658;9.068;2022-08-19T07:40:59;19.30;99.90
15596;DHT22;7898;48.658;9.068;2022-08-19T07:43:27;19.30;99.90
15596;DHT22;7898;48.658;9.068;2022-08-19T07:45:55;19.30;99.90
15596;DHT22;7898;48.658;9.068;2022-08-19T07:48:23;19.20;99.90
15596;DHT22;7898;48.658;9.068;2022-08-19T07:50:52;19.30;99.90
15596;DHT22;7898;48.658;9.068;2022-08-19T07:53:20;19.20;99.90
15596;DHT22;7898;48.658;9.068;2022-08-19T07:55:47;19.30;99.90
15596;DHT22;7898;48.658;9.068;2022-08-19T07:58:16;19.20;99.90
15596;DHT22;7898;48.658;9.068;2022-08-19T08:00:45;19.20;99.90
15596;DHT22;7898;48.658;9.068;2022-08-19T08:03:13;19.30;99.90
15596;DHT22;7898;48.658;9.068;2022-08-19T08:05:41;19.30;99.90
15596;DHT22;7898;48.658;9.068;2022-08-19T08:08:27;19.30;99.90
15596;DHT22;7898;48.658;9.068;2022-08-19T08:11:12;19.30;99.90
15596;DHT22;7898;48.658;9.068;2022-08-19T08:13:39;19.40;99.90
15596;DHT22;7898;48.658;9.068;2022-08-19T08:16:07;19.40;99.90
15596;DHT22;7898;48.658;9.068;2022-08-19T08:18:34;19.40;99.90
15596;DHT22;7898;48.658;9.068;2022-08-19T08:21:07;19.40;99.90
15596;DHT22;7898;48.658;9.068;2022-08-19T08:23:36;19.30;99.90
15596;DHT22;7898;48.658;9.068;2022-08-19T08:26:02;19.30;99.90
15596;DHT22;7898;48.658;9.068;2022-08-19T08:28:30;19.30;99.90
15596;DHT22;7898;48.658;9.068;2022-08-19T08:30:58;19.30;99.90
15596;DHT22;7898;48.658;9.068;2022-08-19T08:33:27;19.40;99.90
15596;DHT22;7898;48.658;9.068;2022-08-19T08:35:54;19.40;99.90
15596;DHT22;7898;48.658;9.068;2022-08-19T08:38:21;19.40;99.90
15596;DHT22;7898;48.658;9.068;2022-08-19T08:40:52;19.40;99.90
15596;DHT22;7898;48.658;9.068;2022-08-19T08:43:27;19.40;99.90
15596;DHT22;7898;48.658;9.068;2022-08-19T08:46:00;19.40;99.90
15596;DHT22;7898;48.658;9.068;2022-08-19T08:48:36;19.40;99.90
15596;DHT22;7898;48.658;9.068;2022-08-19T08:51:07;19.40;99.90
15596;DHT22;7898;48.658;9.068;2022-08-19T08:53:36;19.30;99.90
15596;DHT22;7898;48.658;9.068;2022-08-19T08:56:06;19.30;99.90
15596;DHT22;7898;48.658;9.068;2022-08-19T08:58:44;19.30;99.90
15596;DHT22;7898;48.658;9.068;2022-08-19T09:01:13;19.20;99.90
15596;DHT22;7898;48.658;9.068;2022-08-19T09:03:41;19.20;99.90
15596;DHT22;7898;48.658;9.068;2022-08-19T09:06:14;19.20;99.90
15596;DHT22;7898;48.658;9.068;2022-08-19T09:08:48;19.20;99.90
15596;DHT22;7898;48.658;9.068;2022-08-19T09:11:24;19.20;99.90
15596;DHT22;7898;48.658;9.068;2022-08-19T09:14:06;19.30;99.90
15596;DHT22;7898;48.658;9.068;2022-08-19T09:16:36;19.30;99.90
15596;DHT22;7898;48.658;9.068;2022-08-19T09:19:07;19.40;99.90
15596;DHT22;7898;48.658;9.068;2022-08-19T09:21:36;19.50;99.90
15596;DHT22;7898;48.658;9.068;2022-08-19T09:24:05;19.50;99.90
15596;DHT22;7898;48.658;9.068;2022-08-19T09:26:33;19.50;99.90
15596;DHT22;7898;48.658;9.068;2022-08-19T09:29:01;19.50;99.90
15596;DHT22;7898;48.658;9.068;2022-08-19T09:31:31;19.60;99.90
15596;DHT22;7898;48.658;9.068;2022-08-19T09:33:59;19.60;99.90
15596;DHT22;7898;48.658;9.068;2022-08-19T09:36:30;19.60;99.90
15596;DHT22;7898;48.658;9.068;2022-08-19T09:38:59;19.50;99.90
15596;DHT22;7898;48.658;9.068;2022-08-19T09:41:26;19.60;99.90
15596;DHT22;7898;48.658;9.068;2022-08-19T09:43:56;19.60;99.90
15596;DHT22;7898;48.658;9.068;2022-08-19T09:46:25;19.60;99.90
15596;DHT22;7898;48.658;9.068;2022-08-19T09:48:53;19.60;99.90
15596;DHT22;7898;48.658;9.068;2022-08-19T09:51:23;19.60;99.90
15596;DHT22;7898;48.658;9.068;2022-08-19T09:53:52;19.60;99.90
15596;DHT22;7898;48.658;9.068;2022-08-19T09:56:21;19.20;99.90
15596;DHT22;7898;48.658;9.068;2022-08-19T09:58:48;19.50;99.90
15596;DHT22;7898;48.658;9.068;2022-08-19T10:01:18;19.50;99.90
15596;DHT22;7898;48.658;9.068;2022-08-19T10:03:49;19.50;99.90
15596;DHT22;7898;48.658;9.068;2022-08-19T10:06:17;19.60;99.90
15596;DHT22;7898;48.658;9.068;2022-08-19T10:08:44;19.60;99.90
15596;DHT22;7898;48.658;9.068;2022-08-19T10:11:11;19.60;99.90
15596;DHT22;7898;48.658;9.068;2022-08-19T10:13:41;19.60;99.90
15596;DHT22;7898;48.658;9.068;2022-08-19T10:16:11;19.60;99.90
15596;DHT22;7898;48.658;9.068;2022-08-19T10:18:40;19.60;99.90
15596;DHT22;7898;48.658;9.068;2022-08-19T10:21:12;19.60;99.90
15596;DHT22;7898;48.658;9.068;2022-08-19T10:23:41;19.60;99.90
15596;DHT22;7898;48.658;9.068;2022-08-19T10:26:12;19.60;99.90
15596;DHT22;7898;48.658;9.068;2022-08-19T10:28:40;19.60;99.90
15596;DHT22;7898;48.658;9.068;2022-08-19T10:31:09;19.60;99.90
15596;DHT22;7898;48.658;9.068;2022-08-19T10:33:37;19.60;99.90
15596;DHT22;7898;48.658;9.068;2022-08-19T10:36:09;19.60;99.90
15596;DHT22;7898;48.658;9.068;2022-08-19T10:38:36;19.60;99.90
15596;DHT22;7898;48.658;9.068;2022-08-19T10:41:09;19.60;99.90
15596;DHT22;7898;48.658;9.068;2022-08-19T10:43:36;19.70;99.90
15596;DHT22;7898;48.658;9.068;2022-08-19T10:46:06;19.80;99.90
15596;DHT22;7898;48.658;9.068;2022-08-19T10:48:33;19.80;99.90
15596;DHT22;7898;48.658;9.068;2022-08-19T10:51:00;19.80;99.90
15596;DHT22;7898;48.658;9.068;2022-08-19T10:53:46;19.90;99.90
15596;DHT22;7898;48.658;9.068;2022-08-19T10:56:14;20.00;99.90
15596;DHT22;7898;48.658;9.068;2022-08-19T10:58:58;20.00;99.90
15596;DHT22;7898;48.658;9.068;2022-08-19T11:01:25;20.10;99.90
15596;DHT22;7898;48.658;9.068;2022-08-19T11:03:52;20.10;99.90
15596;DHT22;7898;48.658;9.068;2022-08-19T11:06:19;20.10;99.90
15596;DHT22;7898;48.658;9.068;2022-08-19T11:08:48;20.20;99.90
15596;DHT22;7898;48.658;9.068;2022-08-19T11:11:15;20.30;99.90
15596;DHT22;7898;48.658;9.068;2022-08-19T11:13:42;20.40;99.90
15596;DHT22;7898;48.658;9.068;2022-08-19T11:16:13;20.50;99.90
15596;DHT22;7898;48.658;9.068;2022-08-19T11:18:42;20.60;99.90
15596;DHT22;7898;48.658;9.068;2022-08-19T11:21:12;20.60;99.90
15596;DHT22;7898;48.658;9.068;2022-08-19T11:23:39;20.60;99.90
15596;DHT22;7898;48.658;9.068;2022-08-19T11:26:08;20.60;99.90
15596;DHT22;7898;48.658;9.068;2022-08-19T11:28:35;20.60;99.90
15596;DHT22;7898;48.658;9.068;2022-08-19T11:31:01;20.60;99.90
15596;DHT22;7898;48.658;9.068;2022-08-19T11:33:29;20.60;99.90
15596;DHT22;7898;48.658;9.068;2022-08-19T11:35:58;20.60;99.90
15596;DHT22;7898;48.658;9.068;2022-08-19T11:38:26;20.60;99.90
15596;DHT22;7898;48.658;9.068;2022-08-19T11:40:57;20.60;99.90
15596;DHT22;7898;48.658;9.068;2022-08-19T11:43:26;20.60;99.90
15596;DHT22;7898;48.658;9.068;2022-08-19T11:45:53;20.60;99.90
15596;DHT22;7898;48.658;9.068;2022-08-19T11:48:21;20.70;99.90
15596;DHT22;7898;48.658;9.068;2022-08-19T11:50:48;20.70;99.90
15596;DHT22;7898;48.658;9.068;2022-08-19T11:53:16;20.80;99.90
15596;DHT22;7898;48.658;9.068;2022-08-19T11:55:44;20.80;99.90
15596;DHT22;7898;48.658;9.068;2022-08-19T11:58:11;20.90;99.90
15596;DHT22;7898;48.658;9.068;2022-08-19T12:00:40;21.00;99.90
15596;DHT22;7898;48.658;9.068;2022-08-19T12:03:07;21.00;99.90
15596;DHT22;7898;48.658;9.068;2022-08-19T12:05:36;21.00;99.90
15596;DHT22;7898;48.658;9.068;2022-08-19T12:08:04;21.10;99.90
15596;DHT22;7898;48.658;9.068;2022-08-19T12:10:31;21.20;99.90
15596;DHT22;7898;48.658;9.068;2022-08-19T12:12:58;21.30;99.90
15596;DHT22;7898;48.658;9.068;2022-08-19T12:15:25;21.30;99.90
15596;DHT22;7898;48.658;9.068;2022-08-19T12:17:57;21.40;99.90
15596;DHT22;7898;48.658;9.068;2022-08-19T12:20:24;21.50;99.90
15596;DHT22;7898;48.658;9.068;2022-08-19T12:22:51;21.60;99.90
15596;DHT22;7898;48.658;9.068;2022-08-19T12:25:19;21.60;99.90
15596;DHT22;7898;48.658;9.068;2022-08-19T12:27:46;21.70;99.90
15596;DHT22;7898;48.658;9.068;2022-08-19T12:30:15;21.70;99.90
15596;DHT22;7898;48.658;9.068;2022-08-19T12:32:42;21.80;99.90
15596;DHT22;7898;48.658;9.068;2022-08-19T12:35:10;21.80;99.90
15596;DHT22;7898;48.658;9.068;2022-08-19T12:37:38;21.90;99.90
15596;DHT22;7898;48.658;9.068;2022-08-19T12:40:10;21.90;99.90
15596;DHT22;7898;48.658;9.068;2022-08-19T12:42:38;22.00;99.90
15596;DHT22;7898;48.658;9.068;2022-08-19T12:45:08;22.00;99.90
15596;DHT22;7898;48.658;9.068;2022-08-19T12:47:36;22.10;99.90
15596;DHT22;7898;48.658;9.068;2022-08-19T12:50:04;22.00;99.90
15596;DHT22;7898;48.658;9.068;2022-08-19T12:52:36;22.10;99.90
15596;DHT22;7898;48.658;9.068;2022-08-19T12:55:05;22.10;99.90
15596;DHT22;7898;48.658;9.068;2022-08-19T12:57:32;22.10;99.90
15596;DHT22;7898;48.658;9.068;2022-08-19T13:00:04;22.00;99.90
15596;DHT22;7898;48.658;9.068;2022-08-19T13:02:33;21.70;99.90
15596;DHT22;7898;48.658;9.068;2022-08-19T13:05:02;21.40;99.90
15596;DHT22;7898;48.658;9.068;2022-08-19T13:07:28;21.10;99.90
15596;DHT22;7898;48.658;9.068;2022-08-19T13:09:57;20.80;99.90
15596;DHT22;7898;48.658;9.068;2022-08-19T13:12:24;20.60;99.90
15596;DHT22;7898;48.658;9.068;2022-08-19T13:14:52;20.50;99.90
15596;DHT22;7898;48.658;9.068;2022-08-19T13:17:19;20.40;99.90
15596;DHT22;7898;48.658;9.068;2022-08-19T13:19:46;20.40;99.90
15596;DHT22;7898;48.658;9.068;2022-08-19T13:22:13;20.30;99.90
15596;DHT22;7898;48.658;9.068;2022-08-19T13:24:40;20.20;99.90
15596;DHT22;7898;48.658;9.068;2022-08-19T13:27:10;20.20;99.90
15596;DHT22;7898;48.658;9.068;2022-08-19T13:29:36;20.20;99.90
15596;DHT22;7898;48.658;9.068;2022-08-19T13:32:21;20.20;99.90
15596;DHT22;7898;48.658;9.068;2022-08-19T13:35:05;20.20;99.90
15596;DHT22;7898;48.658;9.068;2022-08-19T13:37:32;20.10;99.90
15596;DHT22;7898;48.658;9.068;2022-08-19T13:40:11;20.10;99.90
15596;DHT22;7898;48.658;9.068;2022-08-19T13:42:43;19.90;99.90
15596;DHT22;7898;48.658;9.068;2022-08-19T13:45:12;19.90;99.90
15596;DHT22;7898;48.658;9.068;2022-08-19T13:47:40;19.80;99.90
15596;DHT22;7898;48.658;9.068;2022-08-19T13:50:08;19.80;99.90
15596;DHT22;7898;48.658;9.068;2022-08-19T13:52:36;19.90;99.90
15596;DHT22;7898;48.658;9.068;2022-08-19T13:55:04;19.80;99.90
15596;DHT22;7898;48.658;9.068;2022-08-19T13:57:31;19.70;99.90
15596;DHT22;7898;48.658;9.068;2022-08-19T14:00:00;19.70;99.90
15596;DHT22;7898;48.658;9.068;2022-08-19T14:02:27;19.70;99.90
15596;DHT22;7898;48.658;9.068;2022-08-19T14:04:54;19.70;99.90
15596;DHT22;7898;48.658;9.068;2022-08-19T14:07:21;19.80;99.90
15596;DHT22;7898;48.658;9.068;2022-08-19T14:09:49;19.80;99.90
15596;DHT22;7898;48.658;9.068;2022-08-19T14:12:19;19.80;99.90
15596;DHT22;7898;48.658;9.068;2022-08-19T14:14:46;19.80;99.90
15596;DHT22;7898;48.658;9.068;2022-08-19T14:17:14;19.80;99.90
15596;DHT22;7898;48.658;9.068;2022-08-19T14:19:42;19.80;99.90
15596;DHT22;7898;48.658;9.068;2022-08-19T14:22:09;19.70;99.90
15596;DHT22;7898;48.658;9.068;2022-08-19T14:24:37;19.60;99.90
15596;DHT22;7898;48.658;9.068;2022-08-19T14:27:05;19.70;99.90
15596;DHT22;7898;48.658;9.068;2022-08-19T14:29:32;19.70;99.90
15596;DHT22;7898;48.658;9.068;2022-08-19T14:31:59;19.80;99.90
15596;DHT22;7898;48.658;9.068;2022-08-19T14:34:28;19.90;99.90
15596;DHT22;7898;48.658;9.068;2022-08-19T14:36:57;20.00;99.90
15596;DHT22;7898;48.658;9.068;2022-08-19T14:39:24;20.00;99.90
15596;DHT22;7898;48.658;9.068;2022-08-19T14:41:51;20.00;99.90
15596;DHT22;7898;48.658;9.068;2022-08-19T14:44:18;20.10;99.90
15596;DHT22;7898;48.658;9.068;2022-08-19T14:46:45;20.10;99.90
15596;DHT22;7898;48.658;9.068;2022-08-19T14:49:12;20.10;99.90
15596;DHT22;7898;48.658;9.068;2022-08-19T14:51:40;20.10;99.90
15596;DHT22;7898;48.658;9.068;2022-08-19T14:54:07;20.20;99.90
15596;DHT22;7898;48.658;9.068;2022-08-19T14:56:34;20.20;99.90
15596;DHT22;7898;48.658;9.068;2022-08-19T14:59:01;20.20;99.90
15596;DHT22;7898;48.658;9.068;2022-08-19T15:01:29;20.30;99.90
15596;DHT22;7898;48.658;9.068;2022-08-19T15:03:55;20.20;99.90
15596;DHT22;7898;48.658;9.068;2022-08-19T15:06:23;20.20;99.90
15596;DHT22;7898;48.658;9.068;2022-08-19T15:08:52;20.20;99.90
15596;DHT22;7898;48.658;9.068;2022-08-19T15:11:22;20.20;99.90
15596;DHT22;7898;48.658;9.068;2022-08-19T15:13:51;20.30;99.90
15596;DHT22;7898;48.658;9.068;2022-08-19T15:16:19;20.40;99.90
15596;DHT22;7898;48.658;9.068;2022-08-19T15:18:49;20.30;99.90
15596;DHT22;7898;48.658;9.068;2022-08-19T15:21:17;20.40;99.90
15596;DHT22;7898;48.658;9.068;2022-08-19T15:23:45;20.50;99.90
15596;DHT22;7898;48.658;9.068;2022-08-19T15:26:14;20.50;99.90
15596;DHT22;7898;48.658;9.068;2022-08-19T15:28:41;20.60;99.90
15596;DHT22;7898;48.658;9.068;2022-08-19T15:31:08;20.70;99.90
15596;DHT22;7898;48.658;9.068;2022-08-19T15:33:36;20.90;99.90
15596;DHT22;7898;48.658;9.068;2022-08-19T15:36:05;21.10;99.90
15596;DHT22;7898;48.658;9.068;2022-08-19T15:38:33;21.50;99.90
15596;DHT22;7898;48.658;9.068;2022-08-19T15:41:01;22.20;99.90
15596;DHT22;7898;48.658;9.068;2022-08-19T15:43:43;22.80;99.90
15596;DHT22;7898;48.658;9.068;2022-08-19T15:46:10;23.70;99.90
15596;DHT22;7898;48.658;9.068;2022-08-19T15:48:37;24.30;99.90
15596;DHT22;7898;48.658;9.068;2022-08-19T15:51:04;24.40;99.90
15596;DHT22;7898;48.658;9.068;2022-08-19T15:53:31;24.70;99.90
15596;DHT22;7898;48.658;9.068;2022-08-19T15:55:58;25.30;99.90